Time;durP1;ratioP1;P1;durP2;ratioP2;P2;SDS_P1;SDS_P2;PMS_P1;PMS_P2;Temp;Humidity;BMP_temperature;BMP_pressure;BME280_temperature;BME280_humidity;BME280_pressure;Samples;Min_cycle;Max_cycle;Signal;HPM_P1;HPM_P2
2022/10/03 00:00:46;;;;;;;;;1.00;1.00;;;;;21.96;57.13;100247.55;110459;1263;15157;-55
2022/10/03 00:03:29;;;;;;;;;2.00;1.00;;;;;21.98;57.02;100251.54;110425;1263;12911;-59
2022/10/03 00:05:56;;;;;;;;;1.33;1.33;;;;;21.98;57.07;100256.27;110456;1264;14688;-59
2022/10/03 00:08:23;;;;;;;;;1.33;1.33;;;;;21.97;57.09;100254.02;110498;1264;12610;-53
2022/10/03 00:10:51;;;;;;;;;2.00;2.00;;;;;21.97;57.05;100253.77;110464;1264;14347;-56
2022/10/03 00:13:18;;;;;;;;;1.00;1.00;;;;;21.98;57.03;100257.20;110436;1263;13612;-54
2022/10/03 00:15:46;;;;;;;;;1.00;1.00;;;;;21.97;57.03;100252.38;110437;1264;14219;-57
2022/10/03 00:18:13;;;;;;;;;2.00;1.00;;;;;21.98;56.99;100252.84;110449;1264;13255;-58
2022/10/03 00:20:41;;;;;;;;;2.00;2.00;;;;;21.98;56.99;100253.89;110519;1264;13092;-55
2022/10/03 00:23:08;;;;;;;;;1.00;1.00;;;;;21.97;57.00;100254.95;110350;1264;12623;-58
2022/10/03 00:25:36;;;;;;;;;1.00;1.00;;;;;21.97;57.07;100251.25;110368;1264;13006;-51
2022/10/03 00:28:03;;;;;;;;;2.00;1.00;;;;;21.97;56.98;100252.95;110422;1262;14508;-59
2022/10/03 00:30:31;;;;;;;;;2.00;2.00;;;;;21.98;56.96;100250.11;110393;1262;14237;-58
2022/10/03 00:33:02;;;;;;;;;2.00;2.00;;;;;21.97;56.88;100249.10;110381;1264;14471;-55
2022/10/03 00:35:30;;;;;;;;;2.00;2.00;;;;;21.96;56.90;100249.23;110471;1265;12727;-56
2022/10/03 00:37:58;;;;;;;;;1.67;1.00;;;;;21.97;56.89;100245.08;110444;1264;14935;-55
2022/10/03 00:40:25;;;;;;;;;3.00;2.00;;;;;21.97;56.92;100246.38;110434;1265;17804;-55
2022/10/03 00:42:52;;;;;;;;;2.00;2.00;;;;;21.96;56.91;100245.53;110431;1264;13228;-59
2022/10/03 00:45:20;;;;;;;;;1.00;1.00;;;;;21.97;56.89;100242.96;110449;1265;14214;-56
2022/10/03 00:47:47;;;;;;;;;1.00;1.00;;;;;21.95;56.87;100238.23;110441;1264;14542;-56
2022/10/03 00:50:14;;;;;;;;;2.33;2.33;;;;;21.96;56.88;100238.35;110475;1265;12598;-56
2022/10/03 00:52:42;;;;;;;;;2.00;2.00;;;;;21.96;56.87;100234.45;110400;1264;12877;-59
2022/10/03 00:55:09;;;;;;;;;2.00;2.00;;;;;21.96;56.88;100238.14;110354;1264;13481;-54
2022/10/03 00:57:36;;;;;;;;;2.00;2.00;;;;;21.95;56.82;100228.45;110423;1264;12989;-55
2022/10/03 01:00:04;;;;;;;;;2.00;2.00;;;;;21.96;56.79;100226.89;110445;1264;13976;-57
2022/10/03 01:02:32;;;;;;;;;2.00;2.00;;;;;21.94;56.87;100221.80;110539;1265;13072;-56
2022/10/03 01:07:50;;;;;;;;;2.00;2.00;;;;;21.95;56.72;100228.98;110073;1262;12110;-56
2022/10/03 01:10:18;;;;;;;;;1.00;1.00;;;;;21.95;56.76;100226.67;110447;1264;13020;-55
2022/10/03 01:12:46;;;;;;;;;1.67;1.67;;;;;21.95;56.78;100231.76;110402;1264;13487;-55
2022/10/03 01:15:14;;;;;;;;;2.00;2.00;;;;;21.95;56.76;100229.73;110331;1264;14018;-53
2022/10/03 01:17:46;;;;;;;;;2.00;2.00;;;;;21.96;56.69;100227.11;110416;1262;13853;-53
2022/10/03 01:20:13;;;;;;;;;2.00;2.00;;;;;21.96;56.71;100225.92;110452;1264;13951;-53
2022/10/03 01:22:41;;;;;;;;;2.67;2.00;;;;;21.96;56.69;100233.02;110435;1262;14852;-55
2022/10/03 01:25:08;;;;;;;;;2.00;2.00;;;;;21.97;56.63;100224.80;110477;1264;12908;-55
2022/10/03 01:30:21;;;;;;;;;2.50;2.00;;;;;21.96;56.69;100228.19;110443;1262;14814;-53
2022/10/03 01:30:22;;;;;;;;;2.33;2.33;;;;;21.96;56.67;100230.54;110420;1262;14234;-55
2022/10/03 01:32:51;;;;;;;;;4.00;3.00;;;;;21.96;56.62;100234.65;110435;1264;14002;-53
2022/10/03 01:35:19;;;;;;;;;3.00;2.00;;;;;21.96;56.62;100234.73;110434;1264;13949;-55
2022/10/03 01:37:46;;;;;;;;;2.00;2.00;;;;;21.96;56.63;100227.64;110418;1263;13093;-57
2022/10/03 01:40:13;;;;;;;;;3.00;3.00;;;;;21.96;56.58;100228.32;110368;1264;12906;-56
2022/10/03 01:42:41;;;;;;;;;2.00;2.00;;;;;21.97;56.56;100225.13;110421;1264;16648;-56
2022/10/03 01:45:12;;;;;;;;;2.00;2.00;;;;;21.96;56.61;100226.27;110425;1264;13789;-55
2022/10/03 01:47:39;;;;;;;;;1.50;1.50;;;;;21.95;56.65;100222.05;110427;1264;12870;-54
2022/10/03 01:50:07;;;;;;;;;2.00;2.00;;;;;21.95;56.56;100224.45;110453;1265;14793;-56
2022/10/03 01:52:34;;;;;;;;;2.00;2.00;;;;;21.95;56.56;100229.33;110423;1264;14694;-55
2022/10/03 01:55:01;;;;;;;;;2.00;2.00;;;;;21.95;56.55;100225.71;110475;1264;13094;-53
2022/10/03 01:57:29;;;;;;;;;2.33;2.33;;;;;21.95;56.55;100229.53;110422;1264;15119;-54
2022/10/03 01:59:56;;;;;;;;;2.00;2.00;;;;;21.95;56.55;100226.66;110429;1262;15337;-56
2022/10/03 02:02:23;;;;;;;;;1.33;1.33;;;;;21.97;56.53;100229.33;110372;1263;14478;-58
2022/10/03 02:04:50;;;;;;;;;2.00;2.00;;;;;21.97;56.47;100235.76;110374;1264;13896;-57
2022/10/03 02:07:20;;;;;;;;;2.00;2.00;;;;;21.96;56.42;100225.89;110475;1264;13157;-52
2022/10/03 02:09:47;;;;;;;;;3.00;3.00;;;;;21.95;56.44;100227.94;110403;1263;15144;-58
2022/10/03 02:12:15;;;;;;;;;3.00;3.00;;;;;21.95;56.46;100235.16;110433;1264;14490;-56
2022/10/03 02:14:42;;;;;;;;;2.00;2.00;;;;;21.95;56.45;100231.00;110431;1262;14470;-56
2022/10/03 02:17:10;;;;;;;;;2.00;2.00;;;;;21.95;56.39;100227.55;110333;1264;14440;-57
2022/10/03 02:19:38;;;;;;;;;2.00;2.00;;;;;21.94;56.47;100222.73;110461;1262;13944;-57
2022/10/03 02:22:05;;;;;;;;;3.00;3.00;;;;;21.96;56.43;100230.00;110495;1264;13130;-55
2022/10/03 02:24:32;;;;;;;;;2.00;2.00;;;;;21.95;56.46;100227.73;110447;1265;13093;-59
2022/10/03 02:27:00;;;;;;;;;2.67;2.67;;;;;21.94;56.45;100233.09;110418;1262;12791;-55
2022/10/03 02:29:27;;;;;;;;;3.00;2.00;;;;;21.94;56.46;100229.45;110418;1264;13710;-57
2022/10/03 02:31:55;;;;;;;;;2.50;2.50;;;;;21.94;56.46;100225.45;110413;1263;14143;-54
2022/10/03 02:34:23;;;;;;;;;2.33;2.00;;;;;21.95;56.37;100229.91;110462;1263;16070;-57
2022/10/03 02:36:50;;;;;;;;;2.00;2.00;;;;;21.96;56.42;100227.73;110461;1263;13237;-52
2022/10/03 02:39:17;;;;;;;;;2.00;2.00;;;;;21.96;56.31;100230.33;110431;1262;16728;-54
2022/10/03 02:41:45;;;;;;;;;2.00;2.00;;;;;21.96;56.35;100232.43;110427;1262;13525;-55
2022/10/03 02:44:12;;;;;;;;;2.67;2.00;;;;;21.96;56.32;100235.08;110422;1262;15500;-58
2022/10/03 02:46:39;;;;;;;;;2.00;2.00;;;;;21.95;56.30;100234.79;110452;1263;13454;-53
2022/10/03 02:49:06;;;;;;;;;2.00;2.00;;;;;21.95;56.28;100233.59;110454;1264;13359;-54
2022/10/03 02:51:33;;;;;;;;;1.00;1.00;;;;;21.94;56.33;100237.26;110440;1262;14518;-55
2022/10/03 02:54:02;;;;;;;;;2.00;2.00;;;;;21.95;56.33;100240.66;110404;1263;14102;-54
2022/10/03 02:56:29;;;;;;;;;2.00;2.00;;;;;21.94;56.33;100243.26;110453;1265;14280;-56
2022/10/03 02:58:57;;;;;;;;;2.00;2.00;;;;;21.95;56.28;100239.05;110415;1263;13240;-56
2022/10/03 03:01:24;;;;;;;;;2.00;2.00;;;;;21.94;56.31;100235.00;110464;1264;12775;-56
2022/10/03 03:03:51;;;;;;;;;2.00;2.00;;;;;21.93;56.31;100236.20;110401;1264;13201;-57
2022/10/03 03:06:19;;;;;;;;;3.00;3.00;;;;;21.93;56.24;100236.69;110441;1263;13270;-56
2022/10/03 03:08:46;;;;;;;;;2.33;2.33;;;;;21.93;56.35;100233.38;110461;1265;13428;-58
2022/10/03 03:11:13;;;;;;;;;3.00;3.00;;;;;21.94;56.28;100231.29;110446;1264;12988;-58
2022/10/03 03:13:40;;;;;;;;;3.00;2.00;;;;;21.95;56.23;100229.20;110461;1264;12975;-57
2022/10/03 03:16:08;;;;;;;;;3.00;3.00;;;;;21.95;56.25;100229.20;110443;1264;12953;-57
2022/10/03 03:18:35;;;;;;;;;2.00;2.00;;;;;21.95;56.26;100225.38;110430;1263;13064;-57
2022/10/03 03:21:03;;;;;;;;;2.33;2.33;;;;;21.93;56.26;100223.55;110443;1264;12992;-57
2022/10/03 03:23:31;;;;;;;;;2.00;2.00;;;;;21.93;56.25;100225.63;110540;1264;13166;-56
2022/10/03 03:25:58;;;;;;;;;2.33;2.33;;;;;21.93;56.29;100219.21;110436;1264;12805;-56
2022/10/03 03:28:26;;;;;;;;;2.67;2.67;;;;;21.93;56.27;100225.01;110478;1264;13074;-55
2022/10/03 03:30:53;;;;;;;;;2.00;2.00;;;;;21.92;56.33;100224.58;110432;1264;12415;-56
2022/10/03 03:33:22;;;;;;;;;4.33;3.00;;;;;21.94;56.25;100227.56;110445;1262;13016;-56
2022/10/03 03:35:50;;;;;;;;;2.00;2.00;;;;;21.93;56.28;100227.02;110439;1264;13106;-57
2022/10/03 03:38:17;;;;;;;;;3.00;3.00;;;;;21.93;56.25;100230.84;110452;1264;12912;-58
2022/10/03 03:40:45;;;;;;;;;4.33;3.00;;;;;21.94;56.21;100233.67;110423;1264;12595;-52
2022/10/03 03:43:12;;;;;;;;;3.00;3.00;;;;;21.94;56.17;100233.64;110511;1264;14697;-55
2022/10/03 03:45:39;;;;;;;;;4.33;3.00;;;;;21.94;56.19;100231.53;110441;1262;12777;-56
2022/10/03 03:48:07;;;;;;;;;5.00;2.67;;;;;21.94;56.18;100230.40;110447;1264;13099;-55
2022/10/03 03:50:34;;;;;;;;;3.00;2.33;;;;;21.93;56.26;100230.67;110440;1264;12776;-59
2022/10/03 03:53:01;;;;;;;;;2.00;2.00;;;;;21.94;56.26;100231.52;110464;1264;12956;-59
2022/10/03 03:55:29;;;;;;;;;2.33;2.00;;;;;21.93;56.21;100235.20;110482;1264;12431;-55
2022/10/03 03:57:56;;;;;;;;;3.00;3.00;;;;;21.94;56.20;100233.88;110438;1265;13999;-58
2022/10/03 04:00:24;;;;;;;;;5.00;5.00;;;;;21.93;56.13;100235.03;110393;1264;13091;-57
2022/10/03 04:02:51;;;;;;;;;4.33;4.33;;;;;21.94;56.18;100230.43;110408;1264;12576;-55
2022/10/03 04:05:18;;;;;;;;;3.00;3.00;;;;;21.93;56.16;100235.55;110448;1264;13004;-56
2022/10/03 04:07:48;;;;;;;;;3.00;2.33;;;;;21.92;56.18;100228.15;110437;1264;13279;-55
2022/10/03 04:10:15;;;;;;;;;3.00;2.00;;;;;21.91;56.17;100229.29;110493;1264;12334;-57
2022/10/03 04:12:43;;;;;;;;;4.33;3.00;;;;;21.93;56.12;100230.70;110401;1264;12970;-57
2022/10/03 04:15:10;;;;;;;;;3.00;2.33;;;;;21.93;56.15;100228.20;110449;1263;13109;-57
2022/10/03 04:20:23;;;;;;;;;2.33;2.00;;;;;21.92;56.18;100225.80;110441;1264;12867;-56
2022/10/03 04:22:50;;;;;;;;;2.00;2.00;;;;;21.91;56.12;100224.41;110492;1263;17152;-53
2022/10/03 04:25:19;;;;;;;;;4.33;3.00;;;;;21.92;56.13;100222.14;110454;1264;12653;-56
2022/10/03 04:27:46;;;;;;;;;3.00;2.33;;;;;21.90;56.14;100223.57;110468;1265;12779;-58
2022/10/03 04:30:14;;;;;;;;;2.00;2.00;;;;;21.91;56.10;100226.25;110486;1265;13599;-58
2022/10/03 04:32:42;;;;;;;;;2.33;2.00;;;;;21.91;56.13;100222.05;110490;1264;13023;-56
2022/10/03 04:35:09;;;;;;;;;5.00;3.00;;;;;21.92;56.12;100222.52;110433;1264;13078;-55
2022/10/03 04:37:36;;;;;;;;;2.00;2.00;;;;;21.91;56.07;100221.14;110450;1264;13570;-54
2022/10/03 04:40:03;;;;;;;;;4.33;3.00;;;;;21.92;56.11;100222.31;110412;1262;13475;-57
2022/10/03 04:42:31;;;;;;;;;3.00;3.00;;;;;21.91;56.13;100217.98;110445;1264;13731;-56
2022/10/03 04:44:58;;;;;;;;;3.00;3.00;;;;;21.91;56.03;100222.35;110425;1264;12853;-55
2022/10/03 04:47:25;;;;;;;;;2.00;2.00;;;;;21.91;56.04;100224.11;110385;1262;17982;-58
2022/10/03 04:49:55;;;;;;;;;3.67;3.00;;;;;21.90;56.15;100223.94;110458;1264;13108;-55
2022/10/03 04:52:22;;;;;;;;;2.00;2.00;;;;;21.90;56.06;100223.95;110500;1264;12154;-53
2022/10/03 04:54:49;;;;;;;;;5.33;3.00;;;;;21.90;56.05;100230.16;110394;1263;12979;-55
2022/10/03 04:57:17;;;;;;;;;3.00;3.00;;;;;21.92;56.08;100229.95;110413;1264;13039;-56
2022/10/03 04:59:44;;;;;;;;;2.00;2.00;;;;;21.94;56.04;100230.02;110424;1265;11869;-58
2022/10/03 05:02:13;;;;;;;;;3.67;2.67;;;;;21.96;56.26;100229.61;110443;1262;14879;-54
2022/10/03 05:04:41;;;;;;;;;2.00;2.00;;;;;21.99;57.07;100227.70;110457;1264;13162;-56
2022/10/03 05:07:08;;;;;;;;;3.00;2.00;;;;;22.02;57.51;100227.39;110436;1264;17622;-55
2022/10/03 05:09:36;;;;;;;;;6.00;3.00;;;;;22.02;57.56;100227.83;110465;1264;12725;-57
2022/10/03 05:12:05;;;;;;;;;3.00;3.00;;;;;22.02;57.67;100228.03;110457;1265;17505;-55
2022/10/03 05:14:32;;;;;;;;;5.00;5.00;;;;;22.02;57.81;100229.92;110457;1265;12780;-55
2022/10/03 05:17:05;;;;;;;;;2.67;2.67;;;;;22.04;57.67;100231.58;110413;1264;13178;-56
2022/10/03 05:19:32;;;;;;;;;3.00;3.00;;;;;22.07;57.69;100229.92;110462;1264;13051;-57
2022/10/03 05:21:59;;;;;;;;;2.00;2.00;;;;;22.07;57.78;100234.36;110448;1264;12945;-57
2022/10/03 05:24:27;;;;;;;;;1.00;1.00;;;;;22.05;57.71;100242.08;110415;1264;12889;-57
2022/10/03 05:26:57;;;;;;;;;5.33;5.00;;;;;21.97;57.69;100237.10;110453;1264;13123;-54
2022/10/03 05:29:25;;;;;;;;;3.00;3.00;;;;;21.90;57.68;100241.86;110405;1263;12709;-55
2022/10/03 05:31:52;;;;;;;;;2.00;2.00;;;;;21.87;57.43;100248.96;110429;1262;13066;-56
2022/10/03 05:34:19;;;;;;;;;3.00;3.00;;;;;21.83;57.24;100250.11;110496;1264;12987;-57
2022/10/03 05:36:47;;;;;;;;;3.00;3.00;;;;;21.81;57.19;100256.05;110398;1264;12991;-56
2022/10/03 05:39:14;;;;;;;;;3.00;2.50;;;;;21.78;57.26;100263.13;110388;1262;13078;-57
2022/10/03 05:41:42;;;;;;;;;4.00;3.00;;;;;21.74;57.09;100262.27;110417;1263;15206;-53
2022/10/03 05:44:10;;;;;;;;;3.00;3.00;;;;;21.70;56.86;100267.25;110438;1263;18115;-56
2022/10/03 05:46:37;;;;;;;;;3.00;3.00;;;;;21.68;56.56;100271.16;110404;1264;14936;-58
2022/10/03 05:49:04;;;;;;;;;2.50;2.50;;;;;21.64;56.21;100278.25;110487;1265;12167;-55
2022/10/03 05:51:32;;;;;;;;;3.00;3.00;;;;;21.59;56.09;100277.20;110409;1264;13926;-57
2022/10/03 05:54:00;;;;;;;;;5.00;3.67;;;;;21.58;55.72;100279.73;110489;1264;13697;-56
2022/10/03 05:56:27;;;;;;;;;2.00;2.00;;;;;21.56;55.34;100280.84;110395;1264;13713;-54
2022/10/03 05:58:55;;;;;;;;;3.00;3.00;;;;;21.54;55.21;100287.67;110433;1264;14664;-53
2022/10/03 06:01:22;;;;;;;;;4.33;4.33;;;;;21.53;54.99;100287.65;110440;1264;12917;-55
2022/10/03 06:03:49;;;;;;;;;3.00;3.00;;;;;21.53;54.77;100290.11;110404;1264;13438;-57
2022/10/03 06:06:19;;;;;;;;;5.00;5.00;;;;;21.52;54.53;100290.21;110437;1265;14103;-57
2022/10/03 06:08:47;;;;;;;;;5.00;3.00;;;;;21.52;54.39;100292.64;110434;1264;13846;-55
2022/10/03 06:11:14;;;;;;;;;3.00;3.00;;;;;21.53;54.28;100300.54;110405;1262;14050;-54
2022/10/03 06:13:41;;;;;;;;;5.00;5.00;;;;;21.52;54.20;100303.75;110427;1262;13386;-58
2022/10/03 06:16:09;;;;;;;;;5.33;5.00;;;;;21.51;54.20;100303.23;110381;1262;12664;-54
2022/10/03 06:18:36;;;;;;;;;3.00;3.00;;;;;21.50;53.94;100309.01;110436;1265;12743;-54
2022/10/03 06:21:03;;;;;;;;;3.00;3.00;;;;;21.48;54.06;100314.27;110432;1262;13180;-55
2022/10/03 06:23:31;;;;;;;;;3.67;3.00;;;;;21.46;53.88;100319.45;110422;1263;13049;-55
2022/10/03 06:25:59;;;;;;;;;3.00;3.00;;;;;21.44;53.84;100316.73;110366;1262;12683;-55
2022/10/03 06:28:26;;;;;;;;;3.00;3.00;;;;;21.44;53.70;100319.42;110449;1265;13132;-56
2022/10/03 06:30:54;;;;;;;;;3.00;3.00;;;;;21.44;53.53;100313.85;110410;1262;13214;-56
2022/10/03 06:33:21;;;;;;;;;3.00;3.00;;;;;21.43;53.42;100307.63;110375;1264;13058;-54
2022/10/03 06:35:49;;;;;;;;;4.33;3.00;;;;;21.45;53.18;100317.13;110401;1264;13357;-57
2022/10/03 06:38:16;;;;;;;;;5.00;5.00;;;;;21.49;53.08;100312.69;110437;1264;13346;-57
2022/10/03 06:40:43;;;;;;;;;3.67;3.67;;;;;21.51;52.87;100312.77;110429;1264;13078;-58
2022/10/03 06:43:10;;;;;;;;;3.00;3.00;;;;;21.54;52.67;100309.41;110447;1265;13031;-56
2022/10/03 06:45:38;;;;;;;;;4.00;4.00;;;;;21.55;52.38;100319.56;110411;1264;13194;-59
2022/10/03 06:48:05;;;;;;;;;5.00;5.00;;;;;21.52;52.40;100323.19;110442;1264;13067;-55
2022/10/03 06:50:33;;;;;;;;;3.00;3.00;;;;;21.56;52.25;100325.44;110363;1265;13175;-56
2022/10/03 06:53:01;;;;;;;;;4.33;4.33;;;;;21.56;52.15;100325.53;110407;1264;13105;-57
2022/10/03 06:55:28;;;;;;;;;3.00;3.00;;;;;21.56;52.18;100335.56;110465;1264;12831;-52
2022/10/03 06:57:55;;;;;;;;;5.50;5.00;;;;;21.59;52.41;100340.29;110392;1264;12210;-52
2022/10/03 07:00:23;;;;;;;;;13.00;10.00;;;;;21.66;52.36;100341.63;110415;1263;13137;-53
2022/10/03 07:02:50;;;;;;;;;9.00;9.00;;;;;21.69;52.26;100345.85;110376;1262;13835;-56
2022/10/03 07:05:18;;;;;;;;;7.67;7.67;;;;;21.63;52.27;100345.13;110408;1264;14969;-53
2022/10/03 07:07:45;;;;;;;;;11.00;10.00;;;;;21.57;52.30;100347.14;110465;1262;13224;-53
2022/10/03 07:10:12;;;;;;;;;10.33;9.67;;;;;21.51;52.28;100346.45;110485;1263;13171;-53
2022/10/03 07:12:42;;;;;;;;;13.00;11.00;;;;;21.40;52.27;100346.52;110423;1263;13619;-54
2022/10/03 07:15:10;;;;;;;;;12.00;12.00;;;;;21.31;52.34;100345.99;110439;1264;13933;-57
2022/10/03 07:17:38;;;;;;;;;13.00;11.00;;;;;21.31;52.12;100346.53;110427;1264;14076;-56
2022/10/03 07:20:05;;;;;;;;;14.33;11.00;;;;;21.29;52.02;100349.66;110438;1264;14662;-57
2022/10/03 07:22:32;;;;;;;;;9.67;9.67;;;;;21.24;51.91;100354.05;110464;1264;13083;-53
2022/10/03 07:25:00;;;;;;;;;13.00;11.00;;;;;21.25;51.91;100352.54;110418;1264;13171;-56
2022/10/03 07:27:28;;;;;;;;;11.00;10.00;;;;;21.34;51.69;100355.25;110413;1265;13913;-57
2022/10/03 07:29:55;;;;;;;;;9.33;9.00;;;;;21.38;51.41;100358.06;110388;1264;18291;-53
2022/10/03 07:32:22;;;;;;;;;10.33;10.00;;;;;21.34;51.19;100360.83;110385;1265;13435;-56
2022/10/03 07:34:50;;;;;;;;;10.67;10.00;;;;;21.32;51.11;100357.87;110336;1264;112249;-54
2022/10/03 07:40:02;;;;;;;;;10.00;7.33;;;;;21.42;51.83;100371.13;110495;1264;12856;-55
2022/10/03 07:42:31;;;;;;;;;10.00;10.00;;;;;21.47;51.49;100370.17;110423;1264;19772;-58
2022/10/03 07:44:58;;;;;;;;;10.00;9.33;;;;;21.47;51.36;100371.06;110427;1265;14480;-56
2022/10/03 07:47:25;;;;;;;;;6.67;6.67;;;;;21.54;51.41;100369.89;110451;1264;13178;-55
2022/10/03 07:49:52;;;;;;;;;8.33;8.33;;;;;21.72;51.33;100376.34;110413;1262;13504;-52
2022/10/03 07:52:22;;;;;;;;;7.00;7.00;;;;;21.78;51.50;100386.66;110462;1265;12853;-59
2022/10/03 07:54:49;;;;;;;;;7.00;6.00;;;;;21.83;51.74;100388.70;110451;1262;13639;-58
2022/10/03 07:57:20;;;;;;;;;10.50;8.00;;;;;21.88;51.75;100393.05;110447;1262;14459;-56
2022/10/03 07:59:48;;;;;;;;;7.67;7.67;;;;;21.90;51.81;100391.52;110415;1262;13576;-59
2022/10/03 08:02:16;;;;;;;;;7.67;7.67;;;;;21.92;51.97;100397.86;110454;1262;13593;-57
2022/10/03 08:04:43;;;;;;;;;10.33;9.00;;;;;21.85;51.81;100404.13;110421;1263;13507;-57
2022/10/03 08:07:11;;;;;;;;;10.67;10.00;;;;;21.73;51.47;100410.48;110425;1262;13084;-54
2022/10/03 08:09:38;;;;;;;;;11.33;10.33;;;;;21.58;51.00;100409.55;110444;1264;13454;-57
2022/10/03 08:12:05;;;;;;;;;14.67;10.67;;;;;21.51;50.76;100413.23;110437;1264;13929;-54
2022/10/03 08:14:34;;;;;;;;;11.00;10.00;;;;;21.41;50.30;100417.84;110388;1263;13087;-55
2022/10/03 08:17:01;;;;;;;;;10.67;9.00;;;;;21.34;50.03;100419.92;110394;1262;13078;-56
2022/10/03 08:19:28;;;;;;;;;13.00;11.00;;;;;21.41;50.10;100424.71;110438;1264;13220;-54
2022/10/03 08:21:56;;;;;;;;;9.67;9.00;;;;;21.73;49.97;100429.11;110402;1262;13081;-57
2022/10/03 08:24:23;;;;;;;;;9.67;9.00;;;;;21.98;49.21;100428.16;110371;1264;14152;-56
2022/10/03 08:26:50;;;;;;;;;11.00;11.00;;;;;21.88;48.35;100428.20;110334;1265;13808;-52
2022/10/03 08:29:18;;;;;;;;;9.00;9.00;;;;;21.57;47.95;100429.08;110435;1262;13737;-52
2022/10/03 08:31:46;;;;;;;;;7.00;7.00;;;;;21.35;47.86;100428.70;110367;1264;14388;-57
2022/10/03 08:34:13;;;;;;;;;12.00;9.50;;;;;21.14;48.00;100433.84;110476;1264;13044;-55
2022/10/03 08:36:41;;;;;;;;;9.00;9.00;;;;;21.01;48.13;100433.75;110382;1264;14040;-53
2022/10/03 08:39:08;;;;;;;;;10.00;9.00;;;;;20.97;48.27;100445.67;110411;1264;13900;-56
2022/10/03 08:41:35;;;;;;;;;10.00;9.33;;;;;20.94;48.18;100448.09;110225;1265;14753;-56
2022/10/03 08:44:03;;;;;;;;;7.67;7.67;;;;;20.86;48.06;100449.60;109950;1264;14582;-53
2022/10/03 08:46:30;;;;;;;;;9.00;9.00;;;;;20.80;47.87;100452.06;110252;1265;16789;-54
2022/10/03 08:48:57;;;;;;;;;11.00;9.67;;;;;20.73;47.57;100462.58;110334;1262;14914;-53
2022/10/03 08:51:25;;;;;;;;;10.00;9.00;;;;;20.77;47.54;100463.70;110419;1262;13832;-57
2022/10/03 08:53:52;;;;;;;;;12.00;9.00;;;;;20.75;47.54;100471.59;110138;1262;19247;-46
2022/10/03 08:56:41;;;;;;;;;9.00;9.00;;;;;20.63;47.82;100481.73;107499;1301;15349;-87
2022/10/03 08:59:08;;;;;;;;;11.00;10.67;;;;;20.61;47.76;100482.19;109251;1277;13194;-88
2022/10/03 09:01:36;;;;;;;;;10.33;10.00;;;;;20.47;48.03;100491.36;109399;1277;12985;-87
2022/10/03 09:04:03;;;;;;;;;10.00;10.00;;;;;20.40;48.33;100491.19;109311;1277;13108;-87
2022/10/03 09:06:32;;;;;;;;;9.00;9.00;;;;;20.40;48.41;100493.48;109221;1277;16153;-86
2022/10/03 09:08:59;;;;;;;;;10.00;9.00;;;;;20.52;48.13;100496.40;109220;1277;12887;-84
2022/10/03 09:11:26;;;;;;;;;10.67;10.67;;;;;20.70;48.15;100500.57;109464;1274;245427;-88
2022/10/03 09:13:54;;;;;;;;;9.00;8.00;;;;;20.86;48.00;100505.03;110933;1264;13604;-85
2022/10/03 09:16:21;;;;;;;;;10.00;9.00;;;;;20.81;48.09;100507.98;111053;1265;12981;-83
2022/10/03 09:18:48;;;;;;;;;8.00;8.00;;;;;20.84;48.13;100509.77;110707;1265;12860;-86
2022/10/03 09:23:37;;;;;;;;;8.00;7.00;;;;;20.88;48.07;100506.13;107836;1299;12994;-90
2022/10/03 09:26:05;;;;;;;;;7.00;7.00;;;;;20.85;47.81;100498.04;109260;1274;13147;-82
2022/10/03 09:29:25;;;;;;;;;10.00;9.00;;;;;;;;106872;1303;13232;-47
2022/10/03 09:31:53;;;;;;;;;6.33;6.00;;;;;;;;108751;1278;16444;-47
2022/10/03 09:34:20;;;;;;;;;6.00;6.00;;;;;;;;108785;1278;13205;-45
2022/10/03 09:36:47;;;;;;;;;9.67;9.00;;;;;;;;108673;1279;13206;-47
2022/10/03 09:39:14;;;;;;;;;11.00;10.00;;;;;;;;108694;1278;14000;-47
2022/10/03 09:41:42;;;;;;;;;11.33;9.00;;;;;;;;108694;1279;13084;-45
2022/10/03 09:44:09;;;;;;;;;8.33;8.33;;;;;;;;109660;1268;13313;-44
2022/10/03 09:46:36;;;;;;;;;9.67;9.00;;;;;;;;110057;1268;12528;-45
2022/10/03 09:49:04;;;;;;;;;6.00;6.00;;;;;;;;109994;1268;13665;-45
2022/10/03 09:51:31;;;;;;;;;8.00;8.00;;;;;;;;110002;1268;15219;-46
2022/10/03 09:53:58;;;;;;;;;6.00;5.67;;;;;;;;109880;1268;14439;-46
2022/10/03 09:56:25;;;;;;;;;6.00;6.00;;;;;;;;109978;1268;14564;-46
2022/10/03 09:58:53;;;;;;;;;9.67;9.00;;;;;;;;109888;1268;14915;-44
2022/10/03 10:01:20;;;;;;;;;8.00;6.67;;;;;;;;109913;1268;13421;-47
2022/10/03 10:03:47;;;;;;;;;6.00;6.00;;;;;;;;109949;1267;14867;-47
2022/10/03 10:06:14;;;;;;;;;9.00;8.33;;;;;;;;110038;1267;13625;-46
2022/10/03 10:08:43;;;;;;;;;6.67;6.67;;;;;;;;110064;1267;14627;-45
2022/10/03 10:11:11;;;;;;;;;6.67;6.67;;;;;;;;110039;1268;14020;-46
2022/10/03 10:13:38;;;;;;;;;6.00;5.67;;;;;;;;110125;1267;13291;-47
2022/10/03 10:16:08;;;;;;;;;6.00;6.00;;;;;;;;110181;1267;13107;-45
2022/10/03 10:18:35;;;;;;;;;6.00;5.67;;;;;;;;110186;1267;14155;-45
2022/10/03 10:21:02;;;;;;;;;5.00;5.00;;;;;;;;110187;1267;15410;-45
2022/10/03 10:23:30;;;;;;;;;5.67;5.00;;;;;;;;110088;1268;13303;-48
2022/10/03 10:25:57;;;;;;;;;5.00;5.00;;;;;;;;110018;1268;15096;-45
2022/10/03 10:28:24;;;;;;;;;8.00;6.00;;;;;;;;109971;1268;13200;-46
2022/10/03 10:30:53;;;;;;;;;7.00;4.67;;;;;;;;109957;1268;13296;-48
2022/10/03 10:33:20;;;;;;;;;5.00;5.00;;;;;;;;109864;1268;14623;-44
2022/10/03 10:35:50;;;;;;;;;5.33;5.33;;;;;;;;110041;1268;16595;-45
2022/10/03 10:38:17;;;;;;;;;8.00;6.00;;;;;;;;110029;1268;13429;-45
2022/10/03 10:40:45;;;;;;;;;6.00;6.00;;;;;;;;109990;1268;13040;-45
2022/10/03 10:43:13;;;;;;;;;5.00;5.00;;;;;;;;109901;1268;13093;-47
2022/10/03 10:45:40;;;;;;;;;8.50;6.00;;;;;;;;109952;1268;12906;-46
2022/10/03 10:48:07;;;;;;;;;9.00;8.00;;;;;;;;109856;1268;13590;-45
2022/10/03 10:50:34;;;;;;;;;9.00;8.00;;;;;;;;109941;1268;14493;-45
2022/10/03 10:53:02;;;;;;;;;8.00;8.00;;;;;;;;109912;1268;18283;-46
2022/10/03 10:55:29;;;;;;;;;9.00;9.00;;;;;;;;110111;1267;12967;-47
2022/10/03 10:57:56;;;;;;;;;6.67;6.67;;;;;;;;107954;1268;13747;-45
2022/10/03 11:00:24;;;;;;;;;9.00;6.00;;;;;;;;109976;1267;14920;-45
2022/10/03 11:02:51;;;;;;;;;7.33;7.33;;;;;;;;109868;1267;14197;-45
2022/10/03 11:05:19;;;;;;;;;6.67;6.67;;;;;;;;109964;1268;13940;-47
2022/10/03 11:07:46;;;;;;;;;8.00;8.00;;;;;;;;110063;1267;14740;-48
2022/10/03 11:10:13;;;;;;;;;5.67;5.67;;;;;;;;109961;1268;13152;-43
2022/10/03 11:12:40;;;;;;;;;7.33;7.33;;;;;;;;109891;1268;14420;-46
2022/10/03 11:15:08;;;;;;;;;6.00;6.00;;;;;;;;109938;1268;14606;-47
2022/10/03 11:17:36;;;;;;;;;6.00;6.00;;;;;;;;109932;1268;15007;-46
2022/10/03 11:20:04;;;;;;;;;7.33;6.00;;;;;;;;109845;1268;15082;-46
2022/10/03 11:22:31;;;;;;;;;6.00;6.00;;;;;;;;109817;1268;13176;-45
2022/10/03 11:24:59;;;;;;;;;4.33;4.33;;;;;;;;109619;1269;13165;-46
2022/10/03 11:27:26;;;;;;;;;5.67;5.67;;;;;;;;109831;1268;13139;-46
2022/10/03 11:29:53;;;;;;;;;6.00;5.50;;;;;;;;109486;1268;14959;-43
2022/10/03 11:32:22;;;;;;;;;5.00;5.00;;;;;;;;110147;1267;13914;-46
2022/10/03 11:34:50;;;;;;;;;8.00;8.00;;;;;;;;109937;1267;21284;-47
2022/10/03 11:37:17;;;;;;;;;5.00;5.00;;;;;;;;109960;1268;12974;-46
2022/10/03 11:39:45;;;;;;;;;7.00;6.67;;;;;;;;109943;1268;14818;-49
2022/10/03 11:42:12;;;;;;;;;4.67;4.67;;;;;;;;109937;1268;14745;-46
2022/10/03 11:44:39;;;;;;;;;5.67;5.33;;;;;;;;109654;1269;14395;-46
2022/10/03 11:47:07;;;;;;;;;5.33;5.00;;;;;;;;109891;1267;13179;-45
2022/10/03 11:49:34;;;;;;;;;5.00;5.00;;;;;;;;110063;1267;16757;-46
2022/10/03 11:52:01;;;;;;;;;6.50;5.50;;;;;;;;110069;1267;14710;-48
2022/10/03 11:54:29;;;;;;;;;7.00;6.33;;;;;;;;109999;1267;14533;-45
2022/10/03 11:56:56;;;;;;;;;5.67;5.67;;;;;;;;110000;1267;14633;-45
2022/10/03 11:59:23;;;;;;;;;6.00;6.00;;;;;;;;109924;1267;14322;-44
2022/10/03 12:01:51;;;;;;;;;6.00;5.00;;;;;;;;110037;1267;13266;-46
2022/10/03 12:04:18;;;;;;;;;5.33;5.00;;;;;;;;109960;1268;18099;-46